sensor_id;sensor_type;location;lat;lon;timestamp;P1;durP1;ratioP1;P2;durP2;ratioP2
43706;SDS011;61348;53.392;-6.248;2023-03-12T00:00:04;55.17;;;11.02;;
43706;SDS011;61348;53.392;-6.248;2023-03-12T00:02:34;50.10;;;11.85;;
43706;SDS011;61348;53.392;-6.248;2023-03-12T00:05:01;56.78;;;10.25;;
43706;SDS011;61348;53.392;-6.248;2023-03-12T00:07:28;52.30;;;11.00;;
43706;SDS011;61348;53.392;-6.248;2023-03-12T00:09:54;46.88;;;9.65;;
43706;SDS011;61348;53.392;-6.248;2023-03-12T00:12:23;46.05;;;9.30;;
43706;SDS011;61348;53.392;-6.248;2023-03-12T00:14:50;55.30;;;10.43;;
43706;SDS011;61348;53.392;-6.248;2023-03-12T00:17:17;53.38;;;10.48;;
43706;SDS011;61348;53.392;-6.248;2023-03-12T00:19:43;40.00;;;9.27;;
43706;SDS011;61348;53.392;-6.248;2023-03-12T00:22:10;58.28;;;8.45;;
43706;SDS011;61348;53.392;-6.248;2023-03-12T00:24:37;35.45;;;7.00;;
43706;SDS011;61348;53.392;-6.248;2023-03-12T00:27:05;39.47;;;9.35;;
43706;SDS011;61348;53.392;-6.248;2023-03-12T00:29:32;43.83;;;8.20;;
43706;SDS011;61348;53.392;-6.248;2023-03-12T00:31:59;36.33;;;7.95;;
43706;SDS011;61348;53.392;-6.248;2023-03-12T00:34:25;39.45;;;9.15;;
43706;SDS011;61348;53.392;-6.248;2023-03-12T00:36:52;38.10;;;6.97;;
43706;SDS011;61348;53.392;-6.248;2023-03-12T00:39:19;30.08;;;9.00;;
43706;SDS011;61348;53.392;-6.248;2023-03-12T00:41:46;42.53;;;8.02;;
43706;SDS011;61348;53.392;-6.248;2023-03-12T00:44:12;34.72;;;8.63;;
43706;SDS011;61348;53.392;-6.248;2023-03-12T00:46:39;36.42;;;7.90;;
43706;SDS011;61348;53.392;-6.248;2023-03-12T00:49:06;43.83;;;9.68;;
43706;SDS011;61348;53.392;-6.248;2023-03-12T00:51:33;41.15;;;8.45;;
43706;SDS011;61348;53.392;-6.248;2023-03-12T00:54:00;44.33;;;7.65;;
43706;SDS011;61348;53.392;-6.248;2023-03-12T00:56:27;36.10;;;6.88;;
43706;SDS011;61348;53.392;-6.248;2023-03-12T00:58:53;33.75;;;7.85;;
43706;SDS011;61348;53.392;-6.248;2023-03-12T01:01:20;49.30;;;10.35;;
43706;SDS011;61348;53.392;-6.248;2023-03-12T01:03:48;36.08;;;6.55;;
43706;SDS011;61348;53.392;-6.248;2023-03-12T01:06:17;38.35;;;7.85;;
43706;SDS011;61348;53.392;-6.248;2023-03-12T01:08:44;39.47;;;8.70;;
43706;SDS011;61348;53.392;-6.248;2023-03-12T01:11:14;42.53;;;6.68;;
43706;SDS011;61348;53.392;-6.248;2023-03-12T01:13:44;40.15;;;7.45;;
43706;SDS011;61348;53.392;-6.248;2023-03-12T01:16:12;34.63;;;9.00;;
43706;SDS011;61348;53.392;-6.248;2023-03-12T01:18:39;34.80;;;7.22;;
43706;SDS011;61348;53.392;-6.248;2023-03-12T01:21:06;34.05;;;7.22;;
43706;SDS011;61348;53.392;-6.248;2023-03-12T01:23:32;47.83;;;8.93;;
43706;SDS011;61348;53.392;-6.248;2023-03-12T01:25:59;28.98;;;5.72;;
43706;SDS011;61348;53.392;-6.248;2023-03-12T01:28:26;42.85;;;7.35;;
43706;SDS011;61348;53.392;-6.248;2023-03-12T01:30:52;47.47;;;7.75;;
43706;SDS011;61348;53.392;-6.248;2023-03-12T01:33:19;39.10;;;8.07;;
43706;SDS011;61348;53.392;-6.248;2023-03-12T01:35:48;44.00;;;9.93;;
43706;SDS011;61348;53.392;-6.248;2023-03-12T01:38:15;32.65;;;6.97;;
43706;SDS011;61348;53.392;-6.248;2023-03-12T01:40:44;39.45;;;8.10;;
43706;SDS011;61348;53.392;-6.248;2023-03-12T01:43:21;46.15;;;9.80;;
43706;SDS011;61348;53.392;-6.248;2023-03-12T01:51:32;40.22;;;10.10;;
43706;SDS011;61348;53.392;-6.248;2023-03-12T01:54:22;39.03;;;8.00;;
43706;SDS011;61348;53.392;-6.248;2023-03-12T01:56:59;30.30;;;7.13;;
43706;SDS011;61348;53.392;-6.248;2023-03-12T01:59:50;46.35;;;7.47;;
43706;SDS011;61348;53.392;-6.248;2023-03-12T02:02:19;44.53;;;7.28;;
43706;SDS011;61348;53.392;-6.248;2023-03-12T02:07:45;33.05;;;7.97;;
43706;SDS011;61348;53.392;-6.248;2023-03-12T02:10:12;47.70;;;8.23;;
43706;SDS011;61348;53.392;-6.248;2023-03-12T02:12:41;33.08;;;7.53;;
43706;SDS011;61348;53.392;-6.248;2023-03-12T02:15:08;44.60;;;7.40;;
43706;SDS011;61348;53.392;-6.248;2023-03-12T02:17:36;46.72;;;8.48;;
43706;SDS011;61348;53.392;-6.248;2023-03-12T02:23:39;32.38;;;7.95;;
43706;SDS011;61348;53.392;-6.248;2023-03-12T02:26:26;37.15;;;7.32;;
43706;SDS011;61348;53.392;-6.248;2023-03-12T02:28:55;32.78;;;8.82;;
43706;SDS011;61348;53.392;-6.248;2023-03-12T02:31:25;36.22;;;6.90;;
43706;SDS011;61348;53.392;-6.248;2023-03-12T02:33:57;66.05;;;9.88;;
43706;SDS011;61348;53.392;-6.248;2023-03-12T02:36:26;35.25;;;8.63;;
43706;SDS011;61348;53.392;-6.248;2023-03-12T02:38:53;50.65;;;10.43;;
43706;SDS011;61348;53.392;-6.248;2023-03-12T02:41:25;34.22;;;7.43;;
43706;SDS011;61348;53.392;-6.248;2023-03-12T02:46:32;45.40;;;7.55;;
43706;SDS011;61348;53.392;-6.248;2023-03-12T02:49:01;38.25;;;7.00;;
43706;SDS011;61348;53.392;-6.248;2023-03-12T02:51:28;35.63;;;8.05;;
43706;SDS011;61348;53.392;-6.248;2023-03-12T02:53:54;41.08;;;7.47;;
43706;SDS011;61348;53.392;-6.248;2023-03-12T02:56:22;45.72;;;9.43;;
43706;SDS011;61348;53.392;-6.248;2023-03-12T02:58:52;51.53;;;9.25;;
43706;SDS011;61348;53.392;-6.248;2023-03-12T03:01:19;56.40;;;9.93;;
43706;SDS011;61348;53.392;-6.248;2023-03-12T03:03:47;64.85;;;11.05;;
43706;SDS011;61348;53.392;-6.248;2023-03-12T03:06:14;43.45;;;6.38;;
43706;SDS011;61348;53.392;-6.248;2023-03-12T03:08:42;40.60;;;8.02;;
43706;SDS011;61348;53.392;-6.248;2023-03-12T03:11:09;47.80;;;10.65;;
43706;SDS011;61348;53.392;-6.248;2023-03-12T03:13:37;39.17;;;6.70;;
43706;SDS011;61348;53.392;-6.248;2023-03-12T03:16:04;47.67;;;8.50;;
43706;SDS011;61348;53.392;-6.248;2023-03-12T03:18:31;32.08;;;7.30;;
43706;SDS011;61348;53.392;-6.248;2023-03-12T03:21:00;51.67;;;9.07;;
43706;SDS011;61348;53.392;-6.248;2023-03-12T03:23:29;40.50;;;7.57;;
43706;SDS011;61348;53.392;-6.248;2023-03-12T03:25:56;37.47;;;6.45;;
43706;SDS011;61348;53.392;-6.248;2023-03-12T03:28:26;49.38;;;10.80;;
43706;SDS011;61348;53.392;-6.248;2023-03-12T03:30:54;38.40;;;7.97;;
43706;SDS011;61348;53.392;-6.248;2023-03-12T03:33:29;38.80;;;7.60;;
43706;SDS011;61348;53.392;-6.248;2023-03-12T03:35:57;45.50;;;9.57;;
43706;SDS011;61348;53.392;-6.248;2023-03-12T03:38:25;35.80;;;6.63;;
43706;SDS011;61348;53.392;-6.248;2023-03-12T03:40:53;39.50;;;6.47;;
43706;SDS011;61348;53.392;-6.248;2023-03-12T03:43:21;46.42;;;7.38;;
43706;SDS011;61348;53.392;-6.248;2023-03-12T03:45:48;39.42;;;8.52;;
43706;SDS011;61348;53.392;-6.248;2023-03-12T03:48:21;41.75;;;7.97;;
43706;SDS011;61348;53.392;-6.248;2023-03-12T03:50:48;36.60;;;8.20;;
43706;SDS011;61348;53.392;-6.248;2023-03-12T03:53:15;34.17;;;6.30;;
43706;SDS011;61348;53.392;-6.248;2023-03-12T03:55:41;31.38;;;8.98;;
43706;SDS011;61348;53.392;-6.248;2023-03-12T03:58:08;45.17;;;10.02;;
43706;SDS011;61348;53.392;-6.248;2023-03-12T04:00:34;38.83;;;6.82;;
43706;SDS011;61348;53.392;-6.248;2023-03-12T04:03:01;30.95;;;7.85;;
43706;SDS011;61348;53.392;-6.248;2023-03-12T04:05:28;39.83;;;7.90;;
43706;SDS011;61348;53.392;-6.248;2023-03-12T04:07:55;38.95;;;6.95;;
43706;SDS011;61348;53.392;-6.248;2023-03-12T04:10:23;37.78;;;7.38;;
43706;SDS011;61348;53.392;-6.248;2023-03-12T04:12:50;43.17;;;7.05;;
43706;SDS011;61348;53.392;-6.248;2023-03-12T04:15:18;29.75;;;5.57;;
43706;SDS011;61348;53.392;-6.248;2023-03-12T04:17:44;38.30;;;6.75;;
43706;SDS011;61348;53.392;-6.248;2023-03-12T04:20:11;37.20;;;10.88;;
43706;SDS011;61348;53.392;-6.248;2023-03-12T04:22:38;49.00;;;10.23;;
43706;SDS011;61348;53.392;-6.248;2023-03-12T04:25:06;31.25;;;7.10;;
43706;SDS011;61348;53.392;-6.248;2023-03-12T04:27:33;39.70;;;8.95;;
43706;SDS011;61348;53.392;-6.248;2023-03-12T04:30:01;33.78;;;5.75;;
43706;SDS011;61348;53.392;-6.248;2023-03-12T04:32:27;35.80;;;6.88;;
43706;SDS011;61348;53.392;-6.248;2023-03-12T04:34:54;36.42;;;7.50;;
43706;SDS011;61348;53.392;-6.248;2023-03-12T04:37:21;31.38;;;7.82;;
43706;SDS011;61348;53.392;-6.248;2023-03-12T04:39:48;31.10;;;5.75;;
43706;SDS011;61348;53.392;-6.248;2023-03-12T04:42:14;28.73;;;5.50;;
43706;SDS011;61348;53.392;-6.248;2023-03-12T04:44:41;40.03;;;7.43;;
43706;SDS011;61348;53.392;-6.248;2023-03-12T04:47:08;40.55;;;5.38;;
43706;SDS011;61348;53.392;-6.248;2023-03-12T04:49:36;33.17;;;8.35;;
43706;SDS011;61348;53.392;-6.248;2023-03-12T04:52:03;35.58;;;5.80;;
43706;SDS011;61348;53.392;-6.248;2023-03-12T04:54:30;29.90;;;4.85;;
43706;SDS011;61348;53.392;-6.248;2023-03-12T04:56:58;29.33;;;6.22;;
43706;SDS011;61348;53.392;-6.248;2023-03-12T04:59:25;24.67;;;5.25;;
43706;SDS011;61348;53.392;-6.248;2023-03-12T05:01:51;23.75;;;5.18;;
43706;SDS011;61348;53.392;-6.248;2023-03-12T05:04:18;46.50;;;8.38;;
43706;SDS011;61348;53.392;-6.248;2023-03-12T05:06:45;29.92;;;8.05;;
43706;SDS011;61348;53.392;-6.248;2023-03-12T05:09:11;29.25;;;5.45;;
43706;SDS011;61348;53.392;-6.248;2023-03-12T05:11:38;26.45;;;5.97;;
43706;SDS011;61348;53.392;-6.248;2023-03-12T05:14:05;29.00;;;5.47;;
43706;SDS011;61348;53.392;-6.248;2023-03-12T05:16:32;39.25;;;8.40;;
43706;SDS011;61348;53.392;-6.248;2023-03-12T05:18:58;31.90;;;6.13;;
43706;SDS011;61348;53.392;-6.248;2023-03-12T05:21:25;28.38;;;6.95;;
43706;SDS011;61348;53.392;-6.248;2023-03-12T05:23:52;43.17;;;7.05;;
43706;SDS011;61348;53.392;-6.248;2023-03-12T05:28:50;27.75;;;6.72;;
43706;SDS011;61348;53.392;-6.248;2023-03-12T05:31:17;38.42;;;7.57;;
43706;SDS011;61348;53.392;-6.248;2023-03-12T05:33:44;37.35;;;6.95;;
43706;SDS011;61348;53.392;-6.248;2023-03-12T05:36:12;40.47;;;6.18;;
43706;SDS011;61348;53.392;-6.248;2023-03-12T05:38:40;32.35;;;6.60;;
43706;SDS011;61348;53.392;-6.248;2023-03-12T05:41:09;28.27;;;5.68;;
43706;SDS011;61348;53.392;-6.248;2023-03-12T05:43:42;30.05;;;5.93;;
43706;SDS011;61348;53.392;-6.248;2023-03-12T05:46:09;27.13;;;5.78;;
43706;SDS011;61348;53.392;-6.248;2023-03-12T05:48:36;34.78;;;5.65;;
43706;SDS011;61348;53.392;-6.248;2023-03-12T05:51:03;34.25;;;8.77;;
43706;SDS011;61348;53.392;-6.248;2023-03-12T05:53:29;44.70;;;7.65;;
43706;SDS011;61348;53.392;-6.248;2023-03-12T05:56:01;37.42;;;6.43;;
43706;SDS011;61348;53.392;-6.248;2023-03-12T05:58:30;43.33;;;6.55;;
43706;SDS011;61348;53.392;-6.248;2023-03-12T06:00:57;35.90;;;7.80;;
43706;SDS011;61348;53.392;-6.248;2023-03-12T06:03:24;53.83;;;9.88;;
43706;SDS011;61348;53.392;-6.248;2023-03-12T06:05:51;37.00;;;8.00;;
43706;SDS011;61348;53.392;-6.248;2023-03-12T06:08:21;33.22;;;7.47;;
43706;SDS011;61348;53.392;-6.248;2023-03-12T06:10:50;33.33;;;5.78;;
43706;SDS011;61348;53.392;-6.248;2023-03-12T06:13:20;39.33;;;7.22;;
43706;SDS011;61348;53.392;-6.248;2023-03-12T06:15:48;39.08;;;8.15;;
43706;SDS011;61348;53.392;-6.248;2023-03-12T06:18:15;29.02;;;7.60;;
43706;SDS011;61348;53.392;-6.248;2023-03-12T06:20:41;37.38;;;6.50;;
43706;SDS011;61348;53.392;-6.248;2023-03-12T06:23:08;40.60;;;6.00;;
43706;SDS011;61348;53.392;-6.248;2023-03-12T06:25:35;32.10;;;8.38;;
43706;SDS011;61348;53.392;-6.248;2023-03-12T06:28:05;38.63;;;8.43;;
43706;SDS011;61348;53.392;-6.248;2023-03-12T06:30:32;45.97;;;8.68;;
43706;SDS011;61348;53.392;-6.248;2023-03-12T06:32:58;32.38;;;7.30;;
43706;SDS011;61348;53.392;-6.248;2023-03-12T06:35:25;39.58;;;6.40;;
43706;SDS011;61348;53.392;-6.248;2023-03-12T06:37:53;42.90;;;8.88;;
43706;SDS011;61348;53.392;-6.248;2023-03-12T06:40:20;56.20;;;9.05;;
43706;SDS011;61348;53.392;-6.248;2023-03-12T06:42:47;28.13;;;6.03;;
43706;SDS011;61348;53.392;-6.248;2023-03-12T06:45:14;39.25;;;6.85;;
43706;SDS011;61348;53.392;-6.248;2023-03-12T06:47:40;48.55;;;6.45;;
43706;SDS011;61348;53.392;-6.248;2023-03-12T06:50:07;35.30;;;6.22;;
43706;SDS011;61348;53.392;-6.248;2023-03-12T06:52:34;37.50;;;7.20;;
43706;SDS011;61348;53.392;-6.248;2023-03-12T06:55:01;35.33;;;6.32;;
43706;SDS011;61348;53.392;-6.248;2023-03-12T06:57:28;41.75;;;6.60;;
43706;SDS011;61348;53.392;-6.248;2023-03-12T06:59:55;42.55;;;7.28;;
43706;SDS011;61348;53.392;-6.248;2023-03-12T07:02:21;33.50;;;6.57;;
43706;SDS011;61348;53.392;-6.248;2023-03-12T07:04:48;44.63;;;7.50;;
43706;SDS011;61348;53.392;-6.248;2023-03-12T07:07:15;37.58;;;6.82;;
43706;SDS011;61348;53.392;-6.248;2023-03-12T07:09:42;49.90;;;8.48;;
43706;SDS011;61348;53.392;-6.248;2023-03-12T07:12:09;27.77;;;6.68;;
43706;SDS011;61348;53.392;-6.248;2023-03-12T07:14:35;28.80;;;6.00;;
43706;SDS011;61348;53.392;-6.248;2023-03-12T07:17:02;31.58;;;6.03;;
43706;SDS011;61348;53.392;-6.248;2023-03-12T07:19:29;40.33;;;6.35;;
43706;SDS011;61348;53.392;-6.248;2023-03-12T07:21:56;30.38;;;7.07;;
43706;SDS011;61348;53.392;-6.248;2023-03-12T07:24:22;43.30;;;6.45;;
43706;SDS011;61348;53.392;-6.248;2023-03-12T07:26:49;42.42;;;6.45;;
43706;SDS011;61348;53.392;-6.248;2023-03-12T07:29:16;23.30;;;5.75;;
43706;SDS011;61348;53.392;-6.248;2023-03-12T07:31:42;40.85;;;7.00;;
43706;SDS011;61348;53.392;-6.248;2023-03-12T07:34:09;38.40;;;6.60;;
43706;SDS011;61348;53.392;-6.248;2023-03-12T07:36:36;34.97;;;5.63;;
43706;SDS011;61348;53.392;-6.248;2023-03-12T07:39:03;31.80;;;5.93;;
43706;SDS011;61348;53.392;-6.248;2023-03-12T07:41:30;35.03;;;5.68;;
43706;SDS011;61348;53.392;-6.248;2023-03-12T07:43:57;37.88;;;8.40;;
43706;SDS011;61348;53.392;-6.248;2023-03-12T07:46:24;37.50;;;7.72;;
43706;SDS011;61348;53.392;-6.248;2023-03-12T07:48:50;37.20;;;7.38;;
43706;SDS011;61348;53.392;-6.248;2023-03-12T07:51:18;38.70;;;5.50;;
43706;SDS011;61348;53.392;-6.248;2023-03-12T07:53:45;32.50;;;6.30;;
43706;SDS011;61348;53.392;-6.248;2023-03-12T07:56:11;46.58;;;7.00;;
43706;SDS011;61348;53.392;-6.248;2023-03-12T07:58:38;37.60;;;6.10;;
43706;SDS011;61348;53.392;-6.248;2023-03-12T08:01:05;35.55;;;6.40;;
43706;SDS011;61348;53.392;-6.248;2023-03-12T08:03:33;36.67;;;6.82;;
43706;SDS011;61348;53.392;-6.248;2023-03-12T08:06:01;36.38;;;8.90;;
43706;SDS011;61348;53.392;-6.248;2023-03-12T08:08:29;39.17;;;6.03;;
43706;SDS011;61348;53.392;-6.248;2023-03-12T08:10:57;37.17;;;6.32;;
43706;SDS011;61348;53.392;-6.248;2023-03-12T08:13:26;43.28;;;6.20;;
43706;SDS011;61348;53.392;-6.248;2023-03-12T08:15:53;30.45;;;7.28;;
43706;SDS011;61348;53.392;-6.248;2023-03-12T08:18:20;33.88;;;7.05;;
43706;SDS011;61348;53.392;-6.248;2023-03-12T08:20:51;43.05;;;6.25;;
43706;SDS011;61348;53.392;-6.248;2023-03-12T08:23:19;29.30;;;5.50;;
43706;SDS011;61348;53.392;-6.248;2023-03-12T08:25:47;35.45;;;7.78;;
43706;SDS011;61348;53.392;-6.248;2023-03-12T08:28:15;33.95;;;7.43;;
43706;SDS011;61348;53.392;-6.248;2023-03-12T08:30:46;37.63;;;7.28;;
43706;SDS011;61348;53.392;-6.248;2023-03-12T08:33:14;39.88;;;6.32;;
43706;SDS011;61348;53.392;-6.248;2023-03-12T08:35:41;32.45;;;6.25;;
43706;SDS011;61348;53.392;-6.248;2023-03-12T08:38:08;22.27;;;5.75;;
43706;SDS011;61348;53.392;-6.248;2023-03-12T08:40:34;31.52;;;7.80;;
43706;SDS011;61348;53.392;-6.248;2023-03-12T08:43:01;33.53;;;6.03;;
43706;SDS011;61348;53.392;-6.248;2023-03-12T08:45:28;26.42;;;6.50;;
43706;SDS011;61348;53.392;-6.248;2023-03-12T08:47:55;28.60;;;6.05;;
43706;SDS011;61348;53.392;-6.248;2023-03-12T08:50:22;38.42;;;8.18;;
43706;SDS011;61348;53.392;-6.248;2023-03-12T08:52:51;45.75;;;8.23;;
43706;SDS011;61348;53.392;-6.248;2023-03-12T08:55:18;38.25;;;7.18;;
43706;SDS011;61348;53.392;-6.248;2023-03-12T08:57:44;24.73;;;6.35;;
43706;SDS011;61348;53.392;-6.248;2023-03-12T09:00:12;29.10;;;7.90;;
43706;SDS011;61348;53.392;-6.248;2023-03-12T09:02:44;28.73;;;5.35;;
43706;SDS011;61348;53.392;-6.248;2023-03-12T09:05:11;42.53;;;7.32;;
43706;SDS011;61348;53.392;-6.248;2023-03-12T09:07:38;29.30;;;5.53;;
43706;SDS011;61348;53.392;-6.248;2023-03-12T09:10:05;36.85;;;7.22;;
43706;SDS011;61348;53.392;-6.248;2023-03-12T09:12:32;25.60;;;5.82;;
43706;SDS011;61348;53.392;-6.248;2023-03-12T09:14:59;31.10;;;6.72;;
43706;SDS011;61348;53.392;-6.248;2023-03-12T09:17:30;36.20;;;7.03;;
43706;SDS011;61348;53.392;-6.248;2023-03-12T09:19:56;41.38;;;6.60;;
43706;SDS011;61348;53.392;-6.248;2023-03-12T09:22:23;30.30;;;5.85;;
43706;SDS011;61348;53.392;-6.248;2023-03-12T09:24:50;29.77;;;7.13;;
43706;SDS011;61348;53.392;-6.248;2023-03-12T09:27:17;26.60;;;5.15;;
43706;SDS011;61348;53.392;-6.248;2023-03-12T09:29:44;36.78;;;6.50;;
43706;SDS011;61348;53.392;-6.248;2023-03-12T09:32:25;29.52;;;6.28;;
43706;SDS011;61348;53.392;-6.248;2023-03-12T09:34:53;32.00;;;5.72;;
43706;SDS011;61348;53.392;-6.248;2023-03-12T09:37:19;32.30;;;5.60;;
43706;SDS011;61348;53.392;-6.248;2023-03-12T09:39:49;36.80;;;7.50;;
43706;SDS011;61348;53.392;-6.248;2023-03-12T09:42:20;28.08;;;5.78;;
43706;SDS011;61348;53.392;-6.248;2023-03-12T09:44:51;30.73;;;5.93;;
43706;SDS011;61348;53.392;-6.248;2023-03-12T09:50:05;24.45;;;7.47;;
43706;SDS011;61348;53.392;-6.248;2023-03-12T09:53:27;22.52;;;6.43;;
43706;SDS011;61348;53.392;-6.248;2023-03-12T09:55:44;35.90;;;5.38;;
43706;SDS011;61348;53.392;-6.248;2023-03-12T10:01:11;21.00;;;4.40;;
43706;SDS011;61348;53.392;-6.248;2023-03-12T10:04:00;25.38;;;5.57;;
43706;SDS011;61348;53.392;-6.248;2023-03-12T10:10:09;22.35;;;5.40;;
43706;SDS011;61348;53.392;-6.248;2023-03-12T10:12:44;28.80;;;5.40;;
43706;SDS011;61348;53.392;-6.248;2023-03-12T10:15:41;31.77;;;6.33;;
43706;SDS011;61348;53.392;-6.248;2023-03-12T10:24:15;31.33;;;7.22;;
43706;SDS011;61348;53.392;-6.248;2023-03-12T10:26:58;26.60;;;5.85;;
43706;SDS011;61348;53.392;-6.248;2023-03-12T10:32:03;23.98;;;5.85;;
43706;SDS011;61348;53.392;-6.248;2023-03-12T10:34:37;26.88;;;7.25;;
43706;SDS011;61348;53.392;-6.248;2023-03-12T10:40:18;17.55;;;4.05;;
43706;SDS011;61348;53.392;-6.248;2023-03-12T10:42:47;20.15;;;5.07;;
43706;SDS011;61348;53.392;-6.248;2023-03-12T10:45:20;26.10;;;5.70;;
43706;SDS011;61348;53.392;-6.248;2023-03-12T10:47:57;18.77;;;4.32;;
43706;SDS011;61348;53.392;-6.248;2023-03-12T10:50:31;21.60;;;4.80;;
43706;SDS011;61348;53.392;-6.248;2023-03-12T10:53:36;20.95;;;4.57;;
43706;SDS011;61348;53.392;-6.248;2023-03-12T10:58:33;19.35;;;5.15;;
43706;SDS011;61348;53.392;-6.248;2023-03-12T11:01:03;19.75;;;4.15;;
43706;SDS011;61348;53.392;-6.248;2023-03-12T11:03:45;25.73;;;4.88;;
43706;SDS011;61348;53.392;-6.248;2023-03-12T11:06:19;17.30;;;4.93;;
43706;SDS011;61348;53.392;-6.248;2023-03-12T11:11:46;25.85;;;4.68;;
43706;SDS011;61348;53.392;-6.248;2023-03-12T11:16:47;17.63;;;4.35;;
43706;SDS011;61348;53.392;-6.248;2023-03-12T11:19:27;14.27;;;4.03;;
43706;SDS011;61348;53.392;-6.248;2023-03-12T11:24:25;18.75;;;5.65;;
43706;SDS011;61348;53.392;-6.248;2023-03-12T11:26:52;26.90;;;5.70;;
43706;SDS011;61348;53.392;-6.248;2023-03-12T11:34:56;19.40;;;5.85;;
43706;SDS011;61348;53.392;-6.248;2023-03-12T11:46:01;20.13;;;5.63;;
43706;SDS011;61348;53.392;-6.248;2023-03-12T11:51:20;23.83;;;4.18;;
43706;SDS011;61348;53.392;-6.248;2023-03-12T12:01:31;15.18;;;4.18;;
43706;SDS011;61348;53.392;-6.248;2023-03-12T12:07:04;21.35;;;3.97;;
43706;SDS011;61348;53.392;-6.248;2023-03-12T12:12:57;18.33;;;6.90;;
43706;SDS011;61348;53.392;-6.248;2023-03-12T12:15:22;26.00;;;4.22;;
43706;SDS011;61348;53.392;-6.248;2023-03-12T12:23:16;23.10;;;3.65;;
43706;SDS011;61348;53.392;-6.248;2023-03-12T12:31:06;13.13;;;3.75;;
43706;SDS011;61348;53.392;-6.248;2023-03-12T12:33:54;22.00;;;4.45;;
43706;SDS011;61348;53.392;-6.248;2023-03-12T12:36:33;16.50;;;3.55;;
43706;SDS011;61348;53.392;-6.248;2023-03-12T12:39:08;20.77;;;4.13;;
43706;SDS011;61348;53.392;-6.248;2023-03-12T12:41:47;20.80;;;4.95;;
43706;SDS011;61348;53.392;-6.248;2023-03-12T12:44:26;19.27;;;3.92;;
43706;SDS011;61348;53.392;-6.248;2023-03-12T12:46:58;17.17;;;4.00;;
43706;SDS011;61348;53.392;-6.248;2023-03-12T12:49:30;22.50;;;3.77;;
43706;SDS011;61348;53.392;-6.248;2023-03-12T12:52:21;16.40;;;4.07;;
43706;SDS011;61348;53.392;-6.248;2023-03-12T12:54:59;16.13;;;2.97;;
43706;SDS011;61348;53.392;-6.248;2023-03-12T13:03:05;13.15;;;3.70;;
43706;SDS011;61348;53.392;-6.248;2023-03-12T13:08:32;20.20;;;6.07;;
43706;SDS011;61348;53.392;-6.248;2023-03-12T13:14:33;20.63;;;4.47;;
43706;SDS011;61348;53.392;-6.248;2023-03-12T13:16:36;16.27;;;3.47;;
43706;SDS011;61348;53.392;-6.248;2023-03-12T13:19:07;16.63;;;4.60;;
43706;SDS011;61348;53.392;-6.248;2023-03-12T13:21:52;15.95;;;3.20;;
43706;SDS011;61348;53.392;-6.248;2023-03-12T13:24:45;18.08;;;4.50;;
43706;SDS011;61348;53.392;-6.248;2023-03-12T13:27:24;9.73;;;2.95;;
43706;SDS011;61348;53.392;-6.248;2023-03-12T13:29:55;15.93;;;3.53;;
43706;SDS011;61348;53.392;-6.248;2023-03-12T13:36:01;13.23;;;2.00;;
43706;SDS011;61348;53.392;-6.248;2023-03-12T13:45:40;6.57;;;1.90;;
43706;SDS011;61348;53.392;-6.248;2023-03-12T13:48:21;7.30;;;1.35;;
43706;SDS011;61348;53.392;-6.248;2023-03-12T13:50:54;9.38;;;1.45;;
43706;SDS011;61348;53.392;-6.248;2023-03-12T13:53:32;8.00;;;1.40;;
43706;SDS011;61348;53.392;-6.248;2023-03-12T13:56:09;7.32;;;1.30;;
43706;SDS011;61348;53.392;-6.248;2023-03-12T14:01:30;8.48;;;1.85;;
43706;SDS011;61348;53.392;-6.248;2023-03-12T14:04:06;6.25;;;1.38;;
43706;SDS011;61348;53.392;-6.248;2023-03-12T14:09:42;11.13;;;1.73;;
43706;SDS011;61348;53.392;-6.248;2023-03-12T14:17:26;4.13;;;1.60;;
43706;SDS011;61348;53.392;-6.248;2023-03-12T14:20:38;9.05;;;1.40;;
43706;SDS011;61348;53.392;-6.248;2023-03-12T14:22:51;10.55;;;1.92;;
43706;SDS011;61348;53.392;-6.248;2023-03-12T14:25:25;8.55;;;1.63;;
43706;SDS011;61348;53.392;-6.248;2023-03-12T14:27:55;4.07;;;1.10;;
43706;SDS011;61348;53.392;-6.248;2023-03-12T14:30:22;7.13;;;1.50;;
43706;SDS011;61348;53.392;-6.248;2023-03-12T14:32:54;8.40;;;1.52;;
43706;SDS011;61348;53.392;-6.248;2023-03-12T14:35:33;8.20;;;1.60;;
43706;SDS011;61348;53.392;-6.248;2023-03-12T14:38:06;5.13;;;1.60;;
43706;SDS011;61348;53.392;-6.248;2023-03-12T14:40:39;8.40;;;0.82;;
43706;SDS011;61348;53.392;-6.248;2023-03-12T14:43:45;8.05;;;1.20;;
43706;SDS011;61348;53.392;-6.248;2023-03-12T14:46:12;4.40;;;1.17;;
43706;SDS011;61348;53.392;-6.248;2023-03-12T14:48:48;3.80;;;1.17;;
43706;SDS011;61348;53.392;-6.248;2023-03-12T14:51:22;1.67;;;0.90;;
43706;SDS011;61348;53.392;-6.248;2023-03-12T14:53:51;6.50;;;1.27;;
43706;SDS011;61348;53.392;-6.248;2023-03-12T14:56:22;3.60;;;1.20;;
43706;SDS011;61348;53.392;-6.248;2023-03-12T14:58:56;4.03;;;1.70;;
43706;SDS011;61348;53.392;-6.248;2023-03-12T15:01:26;3.92;;;1.13;;
43706;SDS011;61348;53.392;-6.248;2023-03-12T15:03:57;4.20;;;1.80;;
43706;SDS011;61348;53.392;-6.248;2023-03-12T15:08:56;3.28;;;1.25;;
43706;SDS011;61348;53.392;-6.248;2023-03-12T15:11:25;3.85;;;1.05;;
43706;SDS011;61348;53.392;-6.248;2023-03-12T15:14:05;2.90;;;0.98;;
43706;SDS011;61348;53.392;-6.248;2023-03-12T15:16:34;5.95;;;2.05;;
43706;SDS011;61348;53.392;-6.248;2023-03-12T15:19:01;3.47;;;1.20;;
43706;SDS011;61348;53.392;-6.248;2023-03-12T15:21:31;3.78;;;1.58;;
43706;SDS011;61348;53.392;-6.248;2023-03-12T15:24:00;5.65;;;1.17;;
43706;SDS011;61348;53.392;-6.248;2023-03-12T15:26:29;5.03;;;1.40;;
43706;SDS011;61348;53.392;-6.248;2023-03-12T15:29:02;8.60;;;1.98;;
43706;SDS011;61348;53.392;-6.248;2023-03-12T15:31:43;3.58;;;1.63;;
43706;SDS011;61348;53.392;-6.248;2023-03-12T15:36:58;8.07;;;1.20;;
43706;SDS011;61348;53.392;-6.248;2023-03-12T15:39:35;4.28;;;1.00;;
43706;SDS011;61348;53.392;-6.248;2023-03-12T15:42:07;10.05;;;2.15;;
43706;SDS011;61348;53.392;-6.248;2023-03-12T15:44:47;2.70;;;1.00;;
43706;SDS011;61348;53.392;-6.248;2023-03-12T15:47:18;6.20;;;1.17;;
43706;SDS011;61348;53.392;-6.248;2023-03-12T15:50:10;3.85;;;1.05;;
43706;SDS011;61348;53.392;-6.248;2023-03-12T15:55:26;2.08;;;1.20;;
43706;SDS011;61348;53.392;-6.248;2023-03-12T15:57:55;4.38;;;0.90;;
43706;SDS011;61348;53.392;-6.248;2023-03-12T16:03:14;4.85;;;1.15;;
43706;SDS011;61348;53.392;-6.248;2023-03-12T16:05:45;5.45;;;1.40;;
43706;SDS011;61348;53.392;-6.248;2023-03-12T16:10:51;5.00;;;1.15;;
43706;SDS011;61348;53.392;-6.248;2023-03-12T16:13:19;1.27;;;0.60;;
43706;SDS011;61348;53.392;-6.248;2023-03-12T16:15:48;4.53;;;1.33;;
43706;SDS011;61348;53.392;-6.248;2023-03-12T16:18:16;7.05;;;1.45;;
43706;SDS011;61348;53.392;-6.248;2023-03-12T16:20:46;3.00;;;0.90;;
43706;SDS011;61348;53.392;-6.248;2023-03-12T16:23:14;3.90;;;1.20;;
43706;SDS011;61348;53.392;-6.248;2023-03-12T16:25:41;5.30;;;1.00;;
43706;SDS011;61348;53.392;-6.248;2023-03-12T16:28:11;2.08;;;1.30;;
43706;SDS011;61348;53.392;-6.248;2023-03-12T16:30:41;2.88;;;1.15;;
43706;SDS011;61348;53.392;-6.248;2023-03-12T16:33:11;3.22;;;0.88;;
43706;SDS011;61348;53.392;-6.248;2023-03-12T16:35:43;4.03;;;0.90;;
43706;SDS011;61348;53.392;-6.248;2023-03-12T16:38:10;6.50;;;1.48;;
43706;SDS011;61348;53.392;-6.248;2023-03-12T16:40:38;3.55;;;1.23;;
43706;SDS011;61348;53.392;-6.248;2023-03-12T16:43:12;4.53;;;1.95;;
43706;SDS011;61348;53.392;-6.248;2023-03-12T16:45:44;4.05;;;1.10;;
43706;SDS011;61348;53.392;-6.248;2023-03-12T16:48:16;2.05;;;0.85;;
43706;SDS011;61348;53.392;-6.248;2023-03-12T16:50:46;1.33;;;0.70;;
43706;SDS011;61348;53.392;-6.248;2023-03-12T16:53:15;2.00;;;0.80;;
43706;SDS011;61348;53.392;-6.248;2023-03-12T16:55:47;4.03;;;1.50;;